sensor_id;sensor_type;location;lat;lon;timestamp;pressure;altitude;pressure_sealevel;temperature;humidity
56052;BME280;41919;42.648;23.384;2023-03-26T00:01:23;94085.44;;;10.94;67.71
56052;BME280;41919;42.648;23.384;2023-03-26T00:03:50;94111.66;;;11.06;67.69
56052;BME280;41919;42.648;23.384;2023-03-26T00:06:24;94015.06;;;10.56;68.08
56052;BME280;41919;42.648;23.384;2023-03-26T00:08:50;94082.97;;;10.99;68.09
56052;BME280;41919;42.648;23.384;2023-03-26T00:11:19;94091.50;;;10.95;68.17
56052;BME280;41919;42.648;23.384;2023-03-26T00:13:45;94080.78;;;10.78;68.68
56052;BME280;41919;42.648;23.384;2023-03-26T00:16:13;94029.78;;;10.32;68.85
56052;BME280;41919;42.648;23.384;2023-03-26T00:18:39;94101.00;;;10.89;68.78
56052;BME280;41919;42.648;23.384;2023-03-26T00:21:07;94022.41;;;10.22;69.45
56052;BME280;41919;42.648;23.384;2023-03-26T00:23:34;93970.44;;;9.89;69.59
56052;BME280;41919;42.648;23.384;2023-03-26T00:26:01;94086.16;;;10.65;69.93
56052;BME280;41919;42.648;23.384;2023-03-26T00:28:27;94012.19;;;10.14;69.95
56052;BME280;41919;42.648;23.384;2023-03-26T00:31:02;94027.16;;;10.32;70.14
56052;BME280;41919;42.648;23.384;2023-03-26T00:33:28;94043.00;;;10.55;69.85
56052;BME280;41919;42.648;23.384;2023-03-26T00:35:55;93996.41;;;10.34;69.61
56052;BME280;41919;42.648;23.384;2023-03-26T00:38:23;93993.53;;;10.35;69.40
56052;BME280;41919;42.648;23.384;2023-03-26T00:40:50;94042.59;;;10.77;69.28
56052;BME280;41919;42.648;23.384;2023-03-26T00:43:17;94053.78;;;10.84;68.48
56052;BME280;41919;42.648;23.384;2023-03-26T00:45:53;93981.53;;;10.34;68.83
56052;BME280;41919;42.648;23.384;2023-03-26T00:48:20;93994.88;;;10.45;68.54
56052;BME280;41919;42.648;23.384;2023-03-26T00:50:46;93980.50;;;10.35;68.64
56052;BME280;41919;42.648;23.384;2023-03-26T00:53:13;93981.72;;;10.33;67.52
56052;BME280;41919;42.648;23.384;2023-03-26T00:55:41;94051.88;;;10.73;67.44
56052;BME280;41919;42.648;23.384;2023-03-26T00:58:07;93975.06;;;10.37;67.31
56052;BME280;41919;42.648;23.384;2023-03-26T01:00:41;94037.81;;;10.74;67.26
56052;BME280;41919;42.648;23.384;2023-03-26T01:03:11;94039.34;;;10.82;66.98
56052;BME280;41919;42.648;23.384;2023-03-26T01:10:45;94016.75;;;10.69;64.84
56052;BME280;41919;42.648;23.384;2023-03-26T01:13:20;94058.34;;;10.89;64.68
56052;BME280;41919;42.648;23.384;2023-03-26T01:15:46;94058.28;;;10.95;64.39
56052;BME280;41919;42.648;23.384;2023-03-26T01:18:18;93960.25;;;10.31;63.99
56052;BME280;41919;42.648;23.384;2023-03-26T01:20:46;93989.50;;;10.39;64.43
56052;BME280;41919;42.648;23.384;2023-03-26T01:23:19;94051.16;;;10.84;64.23
56052;BME280;41919;42.648;23.384;2023-03-26T01:25:55;94041.06;;;10.69;64.71
56052;BME280;41919;42.648;23.384;2023-03-26T01:28:26;93993.72;;;10.40;64.81
56052;BME280;41919;42.648;23.384;2023-03-26T01:31:15;94072.66;;;10.86;65.09
56052;BME280;41919;42.648;23.384;2023-03-26T01:33:57;94077.22;;;10.72;65.89
56052;BME280;41919;42.648;23.384;2023-03-26T01:36:46;94071.63;;;10.69;66.15
56052;BME280;41919;42.648;23.384;2023-03-26T01:39:30;94007.91;;;10.26;66.12
56052;BME280;41919;42.648;23.384;2023-03-26T01:42:10;94024.31;;;10.33;66.06
56052;BME280;41919;42.648;23.384;2023-03-26T01:47:06;94013.81;;;10.15;67.07
56052;BME280;41919;42.648;23.384;2023-03-26T01:49:32;94077.84;;;10.49;67.89
56052;BME280;41919;42.648;23.384;2023-03-26T01:51:58;94011.03;;;10.10;67.81
56052;BME280;41919;42.648;23.384;2023-03-26T01:54:26;93999.47;;;9.99;67.91
56052;BME280;41919;42.648;23.384;2023-03-26T02:02:21;94072.28;;;10.39;69.47
56052;BME280;41919;42.648;23.384;2023-03-26T02:05:04;94093.66;;;10.54;69.71
56052;BME280;41919;42.648;23.384;2023-03-26T02:07:40;94090.78;;;10.63;68.96
56052;BME280;41919;42.648;23.384;2023-03-26T02:10:15;94098.63;;;10.63;69.10
56052;BME280;41919;42.648;23.384;2023-03-26T02:12:43;94102.69;;;10.58;69.95
56052;BME280;41919;42.648;23.384;2023-03-26T02:15:10;94092.94;;;10.47;70.17
56052;BME280;41919;42.648;23.384;2023-03-26T02:17:36;94036.28;;;10.16;69.97
56052;BME280;41919;42.648;23.384;2023-03-26T02:20:09;94098.28;;;10.52;69.97
56052;BME280;41919;42.648;23.384;2023-03-26T02:22:39;94091.22;;;10.34;70.72
56052;BME280;41919;42.648;23.384;2023-03-26T02:25:13;94101.00;;;10.39;70.76
56052;BME280;41919;42.648;23.384;2023-03-26T02:27:39;94030.84;;;9.92;71.66
56052;BME280;41919;42.648;23.384;2023-03-26T02:30:08;94008.69;;;9.76;71.83
56052;BME280;41919;42.648;23.384;2023-03-26T02:32:34;94015.69;;;9.76;72.19
56052;BME280;41919;42.648;23.384;2023-03-26T02:35:00;94095.88;;;10.26;72.05
56052;BME280;41919;42.648;23.384;2023-03-26T02:37:26;94060.13;;;10.01;72.36
56052;BME280;41919;42.648;23.384;2023-03-26T02:39:51;94084.09;;;10.16;72.43
56052;BME280;41919;42.648;23.384;2023-03-26T02:42:17;94043.44;;;9.70;73.27
56052;BME280;41919;42.648;23.384;2023-03-26T02:44:42;94012.31;;;9.44;73.60
56052;BME280;41919;42.648;23.384;2023-03-26T02:47:08;94090.69;;;9.94;73.81
56052;BME280;41919;42.648;23.384;2023-03-26T02:49:33;94075.44;;;9.91;73.56
56052;BME280;41919;42.648;23.384;2023-03-26T02:51:59;94104.06;;;10.04;73.75
56052;BME280;41919;42.648;23.384;2023-03-26T02:54:25;94083.00;;;9.99;73.71
56052;BME280;41919;42.648;23.384;2023-03-26T02:56:50;94019.88;;;9.52;73.94
56052;BME280;41919;42.648;23.384;2023-03-26T02:59:16;94102.69;;;9.95;74.82
56052;BME280;41919;42.648;23.384;2023-03-26T03:01:42;94108.47;;;9.72;75.78
56052;BME280;41919;42.648;23.384;2023-03-26T03:04:11;94042.00;;;9.42;75.59
56052;BME280;41919;42.648;23.384;2023-03-26T03:06:38;94113.84;;;9.77;75.25
56052;BME280;41919;42.648;23.384;2023-03-26T03:09:05;93966.28;;;8.79;75.29
56052;BME280;41919;42.648;23.384;2023-03-26T03:11:33;94056.28;;;9.33;75.24
56052;BME280;41919;42.648;23.384;2023-03-26T03:13:58;94130.97;;;9.66;76.31
56052;BME280;41919;42.648;23.384;2023-03-26T03:16:24;94110.16;;;9.53;76.29
56052;BME280;41919;42.648;23.384;2023-03-26T03:18:50;94046.59;;;8.95;77.23
56052;BME280;41919;42.648;23.384;2023-03-26T03:21:23;94122.00;;;9.49;76.47
56052;BME280;41919;42.648;23.384;2023-03-26T03:23:49;94134.59;;;9.58;76.32
56052;BME280;41919;42.648;23.384;2023-03-26T03:26:17;94061.78;;;9.12;76.02
56052;BME280;41919;42.648;23.384;2023-03-26T03:28:46;94118.41;;;9.43;76.01
56052;BME280;41919;42.648;23.384;2023-03-26T03:31:11;94118.66;;;9.41;76.15
56052;BME280;41919;42.648;23.384;2023-03-26T03:33:37;94133.63;;;9.53;75.87
56052;BME280;41919;42.648;23.384;2023-03-26T03:36:02;94089.41;;;9.26;75.21
56052;BME280;41919;42.648;23.384;2023-03-26T03:38:35;94052.59;;;9.02;75.29
56052;BME280;41919;42.648;23.384;2023-03-26T03:41:01;94147.06;;;9.56;75.55
56052;BME280;41919;42.648;23.384;2023-03-26T03:43:26;94016.22;;;8.69;76.00
56052;BME280;41919;42.648;23.384;2023-03-26T03:45:52;94072.84;;;9.07;76.06
56052;BME280;41919;42.648;23.384;2023-03-26T03:48:17;94122.69;;;9.31;76.49
56052;BME280;41919;42.648;23.384;2023-03-26T03:50:43;94134.31;;;9.35;76.34
56052;BME280;41919;42.648;23.384;2023-03-26T03:53:08;94143.75;;;9.36;76.59
56052;BME280;41919;42.648;23.384;2023-03-26T03:55:34;94139.72;;;9.33;76.94
56052;BME280;41919;42.648;23.384;2023-03-26T03:58:02;94135.72;;;9.31;77.48
56052;BME280;41919;42.648;23.384;2023-03-26T04:00:30;94078.28;;;8.92;76.89
56052;BME280;41919;42.648;23.384;2023-03-26T04:02:56;94089.69;;;9.05;76.81
56052;BME280;41919;42.648;23.384;2023-03-26T04:05:22;94080.34;;;8.77;77.79
56052;BME280;41919;42.648;23.384;2023-03-26T04:07:47;94143.38;;;9.19;77.88
56052;BME280;41919;42.648;23.384;2023-03-26T04:10:14;94090.34;;;8.80;78.03
56052;BME280;41919;42.648;23.384;2023-03-26T04:12:40;94069.34;;;8.55;78.55
56052;BME280;41919;42.648;23.384;2023-03-26T04:15:05;94016.28;;;8.22;78.61
56052;BME280;41919;42.648;23.384;2023-03-26T04:17:31;94142.41;;;9.07;78.46
56052;BME280;41919;42.648;23.384;2023-03-26T04:19:56;94157.66;;;9.10;78.01
56052;BME280;41919;42.648;23.384;2023-03-26T04:22:22;94103.56;;;8.85;77.71
56052;BME280;41919;42.648;23.384;2023-03-26T04:24:48;94188.88;;;9.36;77.66
56052;BME280;41919;42.648;23.384;2023-03-26T04:27:17;94145.59;;;9.09;77.14
56052;BME280;41919;42.648;23.384;2023-03-26T04:29:46;94208.28;;;9.54;76.53
56052;BME280;41919;42.648;23.384;2023-03-26T04:32:22;94135.78;;;9.11;76.00
56052;BME280;41919;42.648;23.384;2023-03-26T04:34:51;94215.09;;;9.55;76.18
56052;BME280;41919;42.648;23.384;2023-03-26T04:37:37;94223.16;;;9.53;76.88
56052;BME280;41919;42.648;23.384;2023-03-26T04:40:20;94191.69;;;9.35;76.51
56052;BME280;41919;42.648;23.384;2023-03-26T04:42:46;94149.03;;;9.09;76.20
56052;BME280;41919;42.648;23.384;2023-03-26T04:45:13;94170.44;;;9.25;75.71
56052;BME280;41919;42.648;23.384;2023-03-26T04:47:39;94169.66;;;9.17;75.74
56052;BME280;41919;42.648;23.384;2023-03-26T04:50:06;94239.56;;;9.60;75.61
56052;BME280;41919;42.648;23.384;2023-03-26T04:52:32;94228.13;;;9.61;75.37
56052;BME280;41919;42.648;23.384;2023-03-26T04:54:58;94206.50;;;9.48;75.12
56052;BME280;41919;42.648;23.384;2023-03-26T04:57:38;94190.84;;;9.41;74.56
56052;BME280;41919;42.648;23.384;2023-03-26T05:00:13;94171.63;;;9.29;73.93
56052;BME280;41919;42.648;23.384;2023-03-26T05:02:41;94235.97;;;9.61;73.58
56052;BME280;41919;42.648;23.384;2023-03-26T05:05:08;94183.03;;;9.48;72.66
56052;BME280;41919;42.648;23.384;2023-03-26T05:07:33;94241.28;;;9.87;71.99
56052;BME280;41919;42.648;23.384;2023-03-26T05:09:59;94181.25;;;9.87;69.75
56052;BME280;41919;42.648;23.384;2023-03-26T05:12:27;94235.34;;;10.56;68.26
56052;BME280;41919;42.648;23.384;2023-03-26T05:14:52;94243.53;;;10.92;66.73
56052;BME280;41919;42.648;23.384;2023-03-26T05:17:18;94233.00;;;11.24;65.16
56052;BME280;41919;42.648;23.384;2023-03-26T05:19:45;94242.88;;;11.47;61.65
56052;BME280;41919;42.648;23.384;2023-03-26T05:22:12;94253.19;;;11.78;60.07
56052;BME280;41919;42.648;23.384;2023-03-26T05:24:37;94181.16;;;11.76;59.00
56052;BME280;41919;42.648;23.384;2023-03-26T05:27:02;94200.69;;;12.10;57.64
56052;BME280;41919;42.648;23.384;2023-03-26T05:29:28;94229.03;;;12.74;56.64
56052;BME280;41919;42.648;23.384;2023-03-26T05:31:53;94225.22;;;13.12;54.50
56052;BME280;41919;42.648;23.384;2023-03-26T05:34:19;94248.53;;;13.67;54.08
56052;BME280;41919;42.648;23.384;2023-03-26T05:36:48;94185.81;;;13.71;52.17
56052;BME280;41919;42.648;23.384;2023-03-26T05:39:13;94192.50;;;14.02;51.31
56052;BME280;41919;42.648;23.384;2023-03-26T05:41:39;94260.38;;;14.63;51.19
56052;BME280;41919;42.648;23.384;2023-03-26T05:44:04;94232.38;;;14.85;49.67
56052;BME280;41919;42.648;23.384;2023-03-26T05:46:30;94243.25;;;15.40;48.11
56052;BME280;41919;42.648;23.384;2023-03-26T05:48:55;94259.41;;;16.04;46.79
56052;BME280;41919;42.648;23.384;2023-03-26T05:51:21;94260.47;;;16.53;45.40
56052;BME280;41919;42.648;23.384;2023-03-26T05:53:47;94208.34;;;16.60;44.30
56052;BME280;41919;42.648;23.384;2023-03-26T05:56:13;94281.13;;;17.37;43.28
56052;BME280;41919;42.648;23.384;2023-03-26T05:58:38;94209.53;;;17.07;43.01
56052;BME280;41919;42.648;23.384;2023-03-26T06:01:06;94271.00;;;18.09;41.24
56052;BME280;41919;42.648;23.384;2023-03-26T06:03:37;94200.78;;;18.49;39.82
56052;BME280;41919;42.648;23.384;2023-03-26T06:06:06;94207.69;;;19.63;38.14
56052;BME280;41919;42.648;23.384;2023-03-26T06:08:32;94241.50;;;20.83;35.70
56052;BME280;41919;42.648;23.384;2023-03-26T06:11:03;94199.59;;;21.09;34.55
56052;BME280;41919;42.648;23.384;2023-03-26T06:13:31;94198.44;;;21.54;33.14
56052;BME280;41919;42.648;23.384;2023-03-26T06:15:56;94235.47;;;22.66;31.33
56052;BME280;41919;42.648;23.384;2023-03-26T06:18:23;94178.00;;;23.17;29.80
56052;BME280;41919;42.648;23.384;2023-03-26T06:20:49;94231.22;;;23.88;29.50
56052;BME280;41919;42.648;23.384;2023-03-26T06:23:15;94176.16;;;24.20;27.62
56052;BME280;41919;42.648;23.384;2023-03-26T06:25:41;94235.75;;;24.43;27.20
56052;BME280;41919;42.648;23.384;2023-03-26T06:28:08;94236.38;;;24.26;27.49
56052;BME280;41919;42.648;23.384;2023-03-26T06:30:34;94231.59;;;25.37;26.14
56052;BME280;41919;42.648;23.384;2023-03-26T06:33:00;94183.25;;;25.56;25.30
56052;BME280;41919;42.648;23.384;2023-03-26T06:35:25;94180.22;;;24.81;25.37
56052;BME280;41919;42.648;23.384;2023-03-26T06:37:51;94241.44;;;25.51;25.79
56052;BME280;41919;42.648;23.384;2023-03-26T06:40:16;94178.03;;;25.51;25.13
56052;BME280;41919;42.648;23.384;2023-03-26T06:42:41;94187.69;;;25.92;24.22
56052;BME280;41919;42.648;23.384;2023-03-26T06:45:07;94220.34;;;26.69;23.47
56052;BME280;41919;42.648;23.384;2023-03-26T06:47:33;94234.47;;;27.27;22.42
56052;BME280;41919;42.648;23.384;2023-03-26T06:49:58;94170.41;;;26.07;23.13
56052;BME280;41919;42.648;23.384;2023-03-26T06:52:24;94240.91;;;26.34;23.88
56052;BME280;41919;42.648;23.384;2023-03-26T06:54:50;94242.88;;;26.11;23.40
56052;BME280;41919;42.648;23.384;2023-03-26T06:57:15;94203.31;;;24.50;24.29
56052;BME280;41919;42.648;23.384;2023-03-26T06:59:41;94256.53;;;23.91;25.43
56052;BME280;41919;42.648;23.384;2023-03-26T07:02:06;94251.41;;;24.22;25.77
56052;BME280;41919;42.648;23.384;2023-03-26T07:04:31;94216.31;;;25.15;24.71
56052;BME280;41919;42.648;23.384;2023-03-26T07:06:57;94258.69;;;25.22;24.22
56052;BME280;41919;42.648;23.384;2023-03-26T07:09:22;94264.22;;;25.48;23.74
56052;BME280;41919;42.648;23.384;2023-03-26T07:11:48;94253.59;;;26.11;24.00
56052;BME280;41919;42.648;23.384;2023-03-26T07:14:13;94262.13;;;27.84;22.63
56052;BME280;41919;42.648;23.384;2023-03-26T07:16:38;94259.75;;;28.00;20.89
56052;BME280;41919;42.648;23.384;2023-03-26T07:19:04;94236.41;;;28.30;21.12
56052;BME280;41919;42.648;23.384;2023-03-26T07:21:30;94244.81;;;29.30;19.60
56052;BME280;41919;42.648;23.384;2023-03-26T07:23:55;94213.97;;;29.27;19.97
56052;BME280;41919;42.648;23.384;2023-03-26T07:31:43;94250.13;;;30.18;18.58
56052;BME280;41919;42.648;23.384;2023-03-26T07:34:27;94250.16;;;30.55;17.85
56052;BME280;41919;42.648;23.384;2023-03-26T07:37:07;94235.19;;;31.47;17.77
56052;BME280;41919;42.648;23.384;2023-03-26T07:40:00;94239.88;;;31.78;17.00
56052;BME280;41919;42.648;23.384;2023-03-26T07:47:41;94200.38;;;31.74;16.96
56052;BME280;41919;42.648;23.384;2023-03-26T07:50:09;94214.91;;;31.53;16.98
56052;BME280;41919;42.648;23.384;2023-03-26T07:52:38;94240.50;;;30.78;17.92
56052;BME280;41919;42.648;23.384;2023-03-26T07:55:05;94255.34;;;30.60;18.26
56052;BME280;41919;42.648;23.384;2023-03-26T08:00:23;94236.66;;;31.89;17.09
56052;BME280;41919;42.648;23.384;2023-03-26T08:05:26;94245.03;;;31.83;16.89
56052;BME280;41919;42.648;23.384;2023-03-26T08:11:02;94255.06;;;30.28;18.29
56052;BME280;41919;42.648;23.384;2023-03-26T08:16:21;94197.44;;;28.96;18.61
56052;BME280;41919;42.648;23.384;2023-03-26T08:21:51;94239.84;;;28.39;19.39
56052;BME280;41919;42.648;23.384;2023-03-26T08:24:21;94246.75;;;27.28;19.75
56052;BME280;41919;42.648;23.384;2023-03-26T08:32:17;94243.41;;;27.05;20.75
56052;BME280;41919;42.648;23.384;2023-03-26T08:34:43;94207.91;;;26.65;20.62
56052;BME280;41919;42.648;23.384;2023-03-26T08:37:08;94181.56;;;24.56;22.46
56052;BME280;41919;42.648;23.384;2023-03-26T08:39:35;94256.03;;;25.08;21.43
56052;BME280;41919;42.648;23.384;2023-03-26T08:59:19;94246.47;;;24.15;23.61
56052;BME280;41919;42.648;23.384;2023-03-26T09:30:08;94234.38;;;21.76;23.64
56052;BME280;41919;42.648;23.384;2023-03-26T09:37:58;94169.88;;;21.65;24.23
56052;BME280;41919;42.648;23.384;2023-03-26T09:40:37;94239.25;;;21.93;24.04
56052;BME280;41919;42.648;23.384;2023-03-26T09:56:34;94194.66;;;19.92;26.49
56052;BME280;41919;42.648;23.384;2023-03-26T10:05:00;94216.06;;;20.71;26.37
56052;BME280;41919;42.648;23.384;2023-03-26T10:07:45;94199.41;;;19.95;26.83
56052;BME280;41919;42.648;23.384;2023-03-26T10:18:28;94185.44;;;19.64;28.43
56052;BME280;41919;42.648;23.384;2023-03-26T10:21:04;94185.47;;;19.49;26.51
56052;BME280;41919;42.648;23.384;2023-03-26T10:23:47;94180.41;;;19.57;27.57
56052;BME280;41919;42.648;23.384;2023-03-26T10:26:48;94172.00;;;19.09;27.63
56052;BME280;41919;42.648;23.384;2023-03-26T10:32:13;94159.03;;;19.08;28.92
56052;BME280;41919;42.648;23.384;2023-03-26T10:46:34;94145.50;;;19.04;27.32
56052;BME280;41919;42.648;23.384;2023-03-26T10:53:57;94075.38;;;18.45;26.43
56052;BME280;41919;42.648;23.384;2023-03-26T10:56:39;94135.47;;;18.80;27.10
56052;BME280;41919;42.648;23.384;2023-03-26T10:59:07;94057.09;;;18.08;27.18
56052;BME280;41919;42.648;23.384;2023-03-26T11:01:45;94126.97;;;18.53;27.13
56052;BME280;41919;42.648;23.384;2023-03-26T11:23:01;94115.50;;;18.01;27.26
56052;BME280;41919;42.648;23.384;2023-03-26T11:25:43;94106.22;;;17.88;25.95
56052;BME280;41919;42.648;23.384;2023-03-26T11:30:53;94103.50;;;17.73;26.12
56052;BME280;41919;42.648;23.384;2023-03-26T11:33:28;94094.44;;;17.53;26.49
56052;BME280;41919;42.648;23.384;2023-03-26T11:35:58;94095.50;;;17.57;26.69
56052;BME280;41919;42.648;23.384;2023-03-26T11:38:31;94041.00;;;17.36;26.01
56052;BME280;41919;42.648;23.384;2023-03-26T11:40:59;94025.16;;;17.41;26.05
56052;BME280;41919;42.648;23.384;2023-03-26T11:43:30;94087.03;;;17.55;26.24
56052;BME280;41919;42.648;23.384;2023-03-26T11:45:57;94062.06;;;17.25;26.03
56052;BME280;41919;42.648;23.384;2023-03-26T11:48:34;94076.31;;;17.19;26.40
56052;BME280;41919;42.648;23.384;2023-03-26T11:51:22;94075.13;;;17.48;26.73
56052;BME280;41919;42.648;23.384;2023-03-26T11:53:49;94026.16;;;17.19;27.02
56052;BME280;41919;42.648;23.384;2023-03-26T11:58:56;93953.22;;;17.08;25.41
56052;BME280;41919;42.648;23.384;2023-03-26T12:01:42;94027.28;;;17.34;24.73
56052;BME280;41919;42.648;23.384;2023-03-26T12:04:12;94032.00;;;17.27;24.68
56052;BME280;41919;42.648;23.384;2023-03-26T12:06:50;93982.28;;;17.13;24.69
56052;BME280;41919;42.648;23.384;2023-03-26T12:09:17;93971.72;;;17.08;25.00
56052;BME280;41919;42.648;23.384;2023-03-26T12:11:43;94028.03;;;17.24;25.75
56052;BME280;41919;42.648;23.384;2023-03-26T12:14:16;94013.72;;;17.20;26.26
56052;BME280;41919;42.648;23.384;2023-03-26T12:17:06;94024.31;;;17.25;26.98
56052;BME280;41919;42.648;23.384;2023-03-26T12:19:40;93977.31;;;17.27;26.21
56052;BME280;41919;42.648;23.384;2023-03-26T12:22:27;93968.59;;;17.16;25.50
56052;BME280;41919;42.648;23.384;2023-03-26T12:25:20;94007.25;;;17.58;25.39
56052;BME280;41919;42.648;23.384;2023-03-26T12:27:48;93952.25;;;17.35;24.84
56052;BME280;41919;42.648;23.384;2023-03-26T12:30:18;94004.41;;;17.80;24.74
56052;BME280;41919;42.648;23.384;2023-03-26T12:32:46;93978.50;;;17.82;24.24
56052;BME280;41919;42.648;23.384;2023-03-26T12:35:17;93967.94;;;17.72;24.74
56052;BME280;41919;42.648;23.384;2023-03-26T12:37:44;93898.91;;;17.22;24.42
56052;BME280;41919;42.648;23.384;2023-03-26T12:40:31;93962.31;;;17.38;24.99
56052;BME280;41919;42.648;23.384;2023-03-26T12:43:00;93958.41;;;17.61;25.69
56052;BME280;41919;42.648;23.384;2023-03-26T12:45:37;93962.16;;;17.86;24.54
56052;BME280;41919;42.648;23.384;2023-03-26T12:48:05;93962.97;;;18.07;23.64
56052;BME280;41919;42.648;23.384;2023-03-26T12:58:41;93889.44;;;17.68;22.30
56052;BME280;41919;42.648;23.384;2023-03-26T13:07:02;93885.19;;;17.46;19.78
56052;BME280;41919;42.648;23.384;2023-03-26T13:09:41;93947.56;;;17.83;20.88
56052;BME280;41919;42.648;23.384;2023-03-26T13:12:13;93952.88;;;17.78;21.12
56052;BME280;41919;42.648;23.384;2023-03-26T13:45:49;93923.81;;;18.24;19.98
56052;BME280;41919;42.648;23.384;2023-03-26T13:48:23;93869.38;;;17.82;20.49
56052;BME280;41919;42.648;23.384;2023-03-26T13:51:01;93923.53;;;18.31;21.03
56052;BME280;41919;42.648;23.384;2023-03-26T13:53:33;93929.09;;;18.24;19.73
56052;BME280;41919;42.648;23.384;2023-03-26T13:56:01;93924.59;;;18.25;20.17
56052;BME280;41919;42.648;23.384;2023-03-26T13:58:34;93935.47;;;18.18;19.59
56052;BME280;41919;42.648;23.384;2023-03-26T14:01:08;93914.81;;;18.10;19.50
56052;BME280;41919;42.648;23.384;2023-03-26T14:06:15;93915.91;;;18.03;19.00
56052;BME280;41919;42.648;23.384;2023-03-26T14:08:50;93919.31;;;18.04;19.43
56052;BME280;41919;42.648;23.384;2023-03-26T14:14:10;93824.97;;;17.43;18.10
56052;BME280;41919;42.648;23.384;2023-03-26T14:16:53;93906.91;;;17.84;18.71
56052;BME280;41919;42.648;23.384;2023-03-26T14:19:40;93898.94;;;17.63;18.48
56052;BME280;41919;42.648;23.384;2023-03-26T14:46:06;93899.47;;;17.45;21.12
56052;BME280;41919;42.648;23.384;2023-03-26T14:51:47;93884.16;;;17.47;22.28
56052;BME280;41919;42.648;23.384;2023-03-26T14:54:21;93887.56;;;17.32;22.23
56052;BME280;41919;42.648;23.384;2023-03-26T15:35:27;93825.31;;;16.05;23.31
56052;BME280;41919;42.648;23.384;2023-03-26T15:40:43;93909.69;;;16.53;22.84
56052;BME280;41919;42.648;23.384;2023-03-26T15:43:12;93910.22;;;16.55;22.89
56052;BME280;41919;42.648;23.384;2023-03-26T15:45:39;93919.97;;;16.54;22.75
56052;BME280;41919;42.648;23.384;2023-03-26T15:56:23;93884.25;;;16.31;23.92
56052;BME280;41919;42.648;23.384;2023-03-26T16:01:57;93848.78;;;16.01;24.94
56052;BME280;41919;42.648;23.384;2023-03-26T16:15:29;93864.41;;;15.76;25.09
56052;BME280;41919;42.648;23.384;2023-03-26T16:20:49;93924.19;;;16.07;25.30
56052;BME280;41919;42.648;23.384;2023-03-26T16:23:33;93850.72;;;15.46;26.12
56052;BME280;41919;42.648;23.384;2023-03-26T16:33:42;93926.13;;;15.85;27.43
56052;BME280;41919;42.648;23.384;2023-03-26T16:36:31;93934.63;;;15.92;27.05
56052;BME280;41919;42.648;23.384;2023-03-26T16:54:38;93878.66;;;15.47;28.53
56052;BME280;41919;42.648;23.384;2023-03-26T17:02:33;93931.72;;;15.66;29.01
56052;BME280;41919;42.648;23.384;2023-03-26T17:05:19;93930.44;;;15.69;28.74
56052;BME280;41919;42.648;23.384;2023-03-26T17:08:17;93921.09;;;15.56;27.91
56052;BME280;41919;42.648;23.384;2023-03-26T17:19:29;93956.56;;;15.21;29.39
56052;BME280;41919;42.648;23.384;2023-03-26T17:22:11;93954.97;;;15.20;29.70
56052;BME280;41919;42.648;23.384;2023-03-26T17:24:43;93961.72;;;15.11;30.41
56052;BME280;41919;42.648;23.384;2023-03-26T17:27:31;93956.16;;;15.07;30.45
56052;BME280;41919;42.648;23.384;2023-03-26T17:32:57;93950.91;;;15.07;30.46
56052;BME280;41919;42.648;23.384;2023-03-26T17:35:43;93958.03;;;15.12;30.38
56052;BME280;41919;42.648;23.384;2023-03-26T17:40:52;93889.75;;;14.73;30.82
56052;BME280;41919;42.648;23.384;2023-03-26T17:46:07;93894.38;;;14.66;30.76
56052;BME280;41919;42.648;23.384;2023-03-26T17:48:38;93938.25;;;14.82;30.80
56052;BME280;41919;42.648;23.384;2023-03-26T17:53:55;93934.06;;;14.64;31.04
56052;BME280;41919;42.648;23.384;2023-03-26T17:56:26;93942.91;;;14.19;32.36
56052;BME280;41919;42.648;23.384;2023-03-26T17:58:55;93945.53;;;13.85;32.74
56052;BME280;41919;42.648;23.384;2023-03-26T18:01:41;93863.00;;;13.02;33.07
56052;BME280;41919;42.648;23.384;2023-03-26T18:04:15;93931.13;;;13.25;33.75
56052;BME280;41919;42.648;23.384;2023-03-26T18:07:08;93950.72;;;12.94;34.35
56052;BME280;41919;42.648;23.384;2023-03-26T18:10:22;93952.38;;;12.71;35.14
56052;BME280;41919;42.648;23.384;2023-03-26T18:13:04;93951.41;;;12.37;35.59
56052;BME280;41919;42.648;23.384;2023-03-26T18:18:36;93850.25;;;11.42;36.54
56052;BME280;41919;42.648;23.384;2023-03-26T18:21:05;93937.28;;;11.91;36.51
56052;BME280;41919;42.648;23.384;2023-03-26T18:23:38;93943.66;;;11.95;36.46
56052;BME280;41919;42.648;23.384;2023-03-26T18:26:12;93861.50;;;11.42;36.38
56052;BME280;41919;42.648;23.384;2023-03-26T18:28:42;93867.44;;;11.49;36.43
56052;BME280;41919;42.648;23.384;2023-03-26T18:31:24;93875.78;;;11.70;35.37
56052;BME280;41919;42.648;23.384;2023-03-26T18:33:55;93865.88;;;11.84;35.22
56052;BME280;41919;42.648;23.384;2023-03-26T18:36:25;93916.88;;;12.28;34.56
56052;BME280;41919;42.648;23.384;2023-03-26T18:38:57;93914.28;;;12.28;35.03
56052;BME280;41919;42.648;23.384;2023-03-26T18:41:28;93913.47;;;12.40;34.76
56052;BME280;41919;42.648;23.384;2023-03-26T18:44:00;93902.97;;;12.40;34.14
56052;BME280;41919;42.648;23.384;2023-03-26T18:46:26;93907.44;;;12.39;34.37
56052;BME280;41919;42.648;23.384;2023-03-26T18:48:51;93841.06;;;11.74;34.88
56052;BME280;41919;42.648;23.384;2023-03-26T18:51:19;93904.44;;;11.76;35.57
56052;BME280;41919;42.648;23.384;2023-03-26T18:54:06;93851.13;;;11.24;35.88
56052;BME280;41919;42.648;23.384;2023-03-26T18:56:38;93847.00;;;11.16;35.82
56052;BME280;41919;42.648;23.384;2023-03-26T18:59:24;93902.50;;;11.60;35.30
56052;BME280;41919;42.648;23.384;2023-03-26T19:01:56;93822.25;;;11.30;34.46
56052;BME280;41919;42.648;23.384;2023-03-26T19:04:24;93894.00;;;12.00;33.87
56052;BME280;41919;42.648;23.384;2023-03-26T19:06:51;93884.56;;;12.11;33.77
56052;BME280;41919;42.648;23.384;2023-03-26T19:09:21;93880.91;;;12.24;33.41
56052;BME280;41919;42.648;23.384;2023-03-26T19:11:49;93885.34;;;12.35;33.22